sensor_id;sensor_type;location;lat;lon;timestamp;P1;durP1;ratioP1;P2;durP2;ratioP2
66856;SDS011;53766;50.280;19.160;2024-01-15T00:01:35;8.60;;;4.55;;
66856;SDS011;53766;50.280;19.160;2024-01-15T00:04:02;8.43;;;4.55;;
66856;SDS011;53766;50.280;19.160;2024-01-15T00:06:30;6.85;;;4.15;;
66856;SDS011;53766;50.280;19.160;2024-01-15T00:09:00;8.57;;;4.30;;
66856;SDS011;53766;50.280;19.160;2024-01-15T00:11:27;7.57;;;4.18;;
66856;SDS011;53766;50.280;19.160;2024-01-15T00:13:55;8.38;;;4.18;;
66856;SDS011;53766;50.280;19.160;2024-01-15T00:16:22;6.40;;;3.67;;
66856;SDS011;53766;50.280;19.160;2024-01-15T00:18:50;8.07;;;3.95;;
66856;SDS011;53766;50.280;19.160;2024-01-15T00:21:17;6.63;;;3.85;;
66856;SDS011;53766;50.280;19.160;2024-01-15T00:23:45;6.50;;;3.78;;
66856;SDS011;53766;50.280;19.160;2024-01-15T00:26:13;7.03;;;4.20;;
66856;SDS011;53766;50.280;19.160;2024-01-15T00:28:40;7.53;;;4.25;;
66856;SDS011;53766;50.280;19.160;2024-01-15T00:31:08;8.27;;;4.20;;
66856;SDS011;53766;50.280;19.160;2024-01-15T00:33:35;6.43;;;3.90;;
66856;SDS011;53766;50.280;19.160;2024-01-15T00:36:03;7.57;;;4.20;;
66856;SDS011;53766;50.280;19.160;2024-01-15T00:38:31;7.18;;;4.10;;
66856;SDS011;53766;50.280;19.160;2024-01-15T00:40:59;7.47;;;4.10;;
66856;SDS011;53766;50.280;19.160;2024-01-15T00:43:26;8.65;;;4.40;;
66856;SDS011;53766;50.280;19.160;2024-01-15T00:45:54;8.07;;;4.30;;
66856;SDS011;53766;50.280;19.160;2024-01-15T00:48:21;6.28;;;3.67;;
66856;SDS011;53766;50.280;19.160;2024-01-15T00:50:49;7.75;;;4.25;;
66856;SDS011;53766;50.280;19.160;2024-01-15T00:53:17;7.93;;;3.80;;
66856;SDS011;53766;50.280;19.160;2024-01-15T00:55:44;7.25;;;4.00;;
66856;SDS011;53766;50.280;19.160;2024-01-15T00:58:12;6.78;;;3.75;;
66856;SDS011;53766;50.280;19.160;2024-01-15T01:00:39;6.57;;;3.80;;
66856;SDS011;53766;50.280;19.160;2024-01-15T01:03:08;7.38;;;3.88;;
66856;SDS011;53766;50.280;19.160;2024-01-15T01:05:36;5.85;;;3.60;;
66856;SDS011;53766;50.280;19.160;2024-01-15T01:08:03;5.70;;;3.80;;
66856;SDS011;53766;50.280;19.160;2024-01-15T01:10:31;6.82;;;4.03;;
66856;SDS011;53766;50.280;19.160;2024-01-15T01:12:58;5.95;;;3.78;;
66856;SDS011;53766;50.280;19.160;2024-01-15T01:15:26;7.55;;;4.05;;
66856;SDS011;53766;50.280;19.160;2024-01-15T01:17:54;7.85;;;4.10;;
66856;SDS011;53766;50.280;19.160;2024-01-15T01:20:22;7.65;;;3.78;;
66856;SDS011;53766;50.280;19.160;2024-01-15T01:22:49;7.15;;;4.22;;
66856;SDS011;53766;50.280;19.160;2024-01-15T01:25:17;7.03;;;3.60;;
66856;SDS011;53766;50.280;19.160;2024-01-15T01:27:44;6.80;;;3.67;;
66856;SDS011;53766;50.280;19.160;2024-01-15T01:30:12;7.00;;;3.83;;
66856;SDS011;53766;50.280;19.160;2024-01-15T01:32:39;6.30;;;3.55;;
66856;SDS011;53766;50.280;19.160;2024-01-15T01:35:07;6.70;;;3.60;;
66856;SDS011;53766;50.280;19.160;2024-01-15T01:37:36;7.80;;;3.95;;
66856;SDS011;53766;50.280;19.160;2024-01-15T01:40:04;6.38;;;3.70;;
66856;SDS011;53766;50.280;19.160;2024-01-15T01:42:32;7.45;;;3.97;;
66856;SDS011;53766;50.280;19.160;2024-01-15T01:45:00;6.20;;;3.58;;
66856;SDS011;53766;50.280;19.160;2024-01-15T01:47:27;7.43;;;4.00;;
66856;SDS011;53766;50.280;19.160;2024-01-15T01:49:55;6.25;;;3.70;;
66856;SDS011;53766;50.280;19.160;2024-01-15T01:52:23;7.43;;;3.72;;
66856;SDS011;53766;50.280;19.160;2024-01-15T01:54:51;5.70;;;3.42;;
66856;SDS011;53766;50.280;19.160;2024-01-15T01:57:19;7.05;;;3.85;;
66856;SDS011;53766;50.280;19.160;2024-01-15T01:59:47;6.03;;;3.28;;
66856;SDS011;53766;50.280;19.160;2024-01-15T02:02:15;7.25;;;3.40;;
66856;SDS011;53766;50.280;19.160;2024-01-15T02:04:43;5.70;;;3.40;;
66856;SDS011;53766;50.280;19.160;2024-01-15T02:07:11;5.80;;;3.35;;
66856;SDS011;53766;50.280;19.160;2024-01-15T02:09:39;6.55;;;3.30;;
66856;SDS011;53766;50.280;19.160;2024-01-15T02:12:08;6.38;;;3.60;;
66856;SDS011;53766;50.280;19.160;2024-01-15T02:14:36;6.68;;;3.45;;
66856;SDS011;53766;50.280;19.160;2024-01-15T02:17:04;6.68;;;3.38;;
66856;SDS011;53766;50.280;19.160;2024-01-15T02:19:31;6.63;;;3.30;;
66856;SDS011;53766;50.280;19.160;2024-01-15T02:21:59;6.38;;;3.60;;
66856;SDS011;53766;50.280;19.160;2024-01-15T02:24:27;6.40;;;3.63;;
66856;SDS011;53766;50.280;19.160;2024-01-15T02:26:54;8.45;;;3.58;;
66856;SDS011;53766;50.280;19.160;2024-01-15T02:29:21;6.05;;;3.28;;
66856;SDS011;53766;50.280;19.160;2024-01-15T02:31:49;6.07;;;3.45;;
66856;SDS011;53766;50.280;19.160;2024-01-15T02:34:17;5.63;;;3.22;;
66856;SDS011;53766;50.280;19.160;2024-01-15T02:36:44;6.50;;;3.20;;
66856;SDS011;53766;50.280;19.160;2024-01-15T02:39:12;6.30;;;3.38;;
66856;SDS011;53766;50.280;19.160;2024-01-15T02:41:40;6.85;;;3.42;;
66856;SDS011;53766;50.280;19.160;2024-01-15T02:44:07;6.32;;;3.38;;
66856;SDS011;53766;50.280;19.160;2024-01-15T02:46:35;6.82;;;3.20;;
66856;SDS011;53766;50.280;19.160;2024-01-15T02:49:02;5.78;;;3.35;;
66856;SDS011;53766;50.280;19.160;2024-01-15T02:51:30;6.88;;;3.58;;
66856;SDS011;53766;50.280;19.160;2024-01-15T02:53:58;4.30;;;2.70;;
66856;SDS011;53766;50.280;19.160;2024-01-15T02:56:25;6.22;;;2.90;;
66856;SDS011;53766;50.280;19.160;2024-01-15T02:58:53;5.28;;;3.10;;
66856;SDS011;53766;50.280;19.160;2024-01-15T03:01:20;5.90;;;3.13;;
66856;SDS011;53766;50.280;19.160;2024-01-15T03:03:48;4.78;;;3.05;;
66856;SDS011;53766;50.280;19.160;2024-01-15T03:06:15;5.03;;;2.90;;
66856;SDS011;53766;50.280;19.160;2024-01-15T03:08:43;5.60;;;2.97;;
66856;SDS011;53766;50.280;19.160;2024-01-15T03:11:10;5.78;;;3.10;;
66856;SDS011;53766;50.280;19.160;2024-01-15T03:13:38;5.90;;;3.15;;
66856;SDS011;53766;50.280;19.160;2024-01-15T03:16:05;5.53;;;3.03;;
66856;SDS011;53766;50.280;19.160;2024-01-15T03:18:33;4.78;;;2.85;;
66856;SDS011;53766;50.280;19.160;2024-01-15T03:21:01;4.63;;;2.75;;
66856;SDS011;53766;50.280;19.160;2024-01-15T03:23:29;5.18;;;2.70;;
66856;SDS011;53766;50.280;19.160;2024-01-15T03:25:56;5.65;;;3.22;;
66856;SDS011;53766;50.280;19.160;2024-01-15T03:28:24;5.28;;;2.90;;
66856;SDS011;53766;50.280;19.160;2024-01-15T03:30:51;4.10;;;2.67;;
66856;SDS011;53766;50.280;19.160;2024-01-15T03:33:19;4.80;;;2.78;;
66856;SDS011;53766;50.280;19.160;2024-01-15T03:35:47;4.38;;;2.80;;
66856;SDS011;53766;50.280;19.160;2024-01-15T03:38:14;5.30;;;2.92;;
66856;SDS011;53766;50.280;19.160;2024-01-15T03:40:42;5.55;;;3.20;;
66856;SDS011;53766;50.280;19.160;2024-01-15T03:43:10;5.30;;;2.88;;
66856;SDS011;53766;50.280;19.160;2024-01-15T03:45:37;4.88;;;2.88;;
66856;SDS011;53766;50.280;19.160;2024-01-15T03:48:05;5.57;;;3.03;;
66856;SDS011;53766;50.280;19.160;2024-01-15T03:50:33;3.88;;;2.33;;
66856;SDS011;53766;50.280;19.160;2024-01-15T03:53:00;5.40;;;2.63;;
66856;SDS011;53766;50.280;19.160;2024-01-15T03:55:28;5.22;;;2.53;;
66856;SDS011;53766;50.280;19.160;2024-01-15T03:57:55;5.82;;;2.95;;
66856;SDS011;53766;50.280;19.160;2024-01-15T04:00:23;5.28;;;2.55;;
66856;SDS011;53766;50.280;19.160;2024-01-15T04:02:51;5.60;;;2.45;;
66856;SDS011;53766;50.280;19.160;2024-01-15T04:05:18;4.07;;;2.30;;
66856;SDS011;53766;50.280;19.160;2024-01-15T04:07:46;4.63;;;2.67;;
66856;SDS011;53766;50.280;19.160;2024-01-15T04:10:13;5.10;;;2.88;;
66856;SDS011;53766;50.280;19.160;2024-01-15T04:12:41;4.90;;;2.80;;
66856;SDS011;53766;50.280;19.160;2024-01-15T04:15:09;4.13;;;2.40;;
66856;SDS011;53766;50.280;19.160;2024-01-15T04:17:36;4.53;;;2.55;;
66856;SDS011;53766;50.280;19.160;2024-01-15T04:20:04;5.72;;;2.90;;
66856;SDS011;53766;50.280;19.160;2024-01-15T04:22:32;4.18;;;2.45;;
66856;SDS011;53766;50.280;19.160;2024-01-15T04:25:01;4.60;;;2.67;;
66856;SDS011;53766;50.280;19.160;2024-01-15T04:27:29;4.57;;;2.78;;
66856;SDS011;53766;50.280;19.160;2024-01-15T04:29:56;4.38;;;2.40;;
66856;SDS011;53766;50.280;19.160;2024-01-15T04:32:24;7.05;;;2.90;;
66856;SDS011;53766;50.280;19.160;2024-01-15T04:34:51;3.58;;;2.30;;
66856;SDS011;53766;50.280;19.160;2024-01-15T04:37:19;4.53;;;2.58;;
66856;SDS011;53766;50.280;19.160;2024-01-15T04:39:47;4.10;;;2.60;;
66856;SDS011;53766;50.280;19.160;2024-01-15T04:42:14;4.68;;;2.28;;
66856;SDS011;53766;50.280;19.160;2024-01-15T04:44:42;4.70;;;2.63;;
66856;SDS011;53766;50.280;19.160;2024-01-15T04:47:09;4.60;;;2.53;;
66856;SDS011;53766;50.280;19.160;2024-01-15T04:49:37;4.55;;;2.72;;
66856;SDS011;53766;50.280;19.160;2024-01-15T04:52:04;4.22;;;2.58;;
66856;SDS011;53766;50.280;19.160;2024-01-15T04:54:32;4.95;;;2.30;;
66856;SDS011;53766;50.280;19.160;2024-01-15T04:57:00;4.70;;;2.50;;
66856;SDS011;53766;50.280;19.160;2024-01-15T04:59:27;4.05;;;2.60;;
66856;SDS011;53766;50.280;19.160;2024-01-15T05:01:56;5.40;;;2.67;;
66856;SDS011;53766;50.280;19.160;2024-01-15T05:04:23;3.53;;;2.33;;
66856;SDS011;53766;50.280;19.160;2024-01-15T05:06:54;3.83;;;2.40;;
66856;SDS011;53766;50.280;19.160;2024-01-15T05:09:22;4.32;;;2.45;;
66856;SDS011;53766;50.280;19.160;2024-01-15T05:11:50;4.80;;;2.30;;
66856;SDS011;53766;50.280;19.160;2024-01-15T05:14:17;4.63;;;2.40;;
66856;SDS011;53766;50.280;19.160;2024-01-15T05:16:48;3.30;;;2.20;;
66856;SDS011;53766;50.280;19.160;2024-01-15T05:19:16;4.10;;;2.63;;
66856;SDS011;53766;50.280;19.160;2024-01-15T05:21:44;4.35;;;2.40;;
66856;SDS011;53766;50.280;19.160;2024-01-15T05:24:12;4.13;;;2.33;;
66856;SDS011;53766;50.280;19.160;2024-01-15T05:26:39;4.80;;;2.38;;
66856;SDS011;53766;50.280;19.160;2024-01-15T05:29:07;3.92;;;2.30;;
66856;SDS011;53766;50.280;19.160;2024-01-15T05:31:35;5.43;;;2.17;;
66856;SDS011;53766;50.280;19.160;2024-01-15T05:34:03;5.40;;;2.70;;
66856;SDS011;53766;50.280;19.160;2024-01-15T05:36:31;4.25;;;2.42;;
66856;SDS011;53766;50.280;19.160;2024-01-15T05:38:59;4.93;;;2.40;;
66856;SDS011;53766;50.280;19.160;2024-01-15T05:41:27;4.65;;;2.35;;
66856;SDS011;53766;50.280;19.160;2024-01-15T05:43:54;7.30;;;2.53;;
66856;SDS011;53766;50.280;19.160;2024-01-15T05:46:22;11.05;;;2.30;;
66856;SDS011;53766;50.280;19.160;2024-01-15T05:48:49;5.88;;;2.90;;
66856;SDS011;53766;50.280;19.160;2024-01-15T05:51:17;11.38;;;2.58;;
66856;SDS011;53766;50.280;19.160;2024-01-15T05:53:44;7.32;;;2.60;;
66856;SDS011;53766;50.280;19.160;2024-01-15T05:56:14;8.13;;;2.92;;
66856;SDS011;53766;50.280;19.160;2024-01-15T05:58:41;12.88;;;4.20;;
66856;SDS011;53766;50.280;19.160;2024-01-15T06:01:09;8.60;;;3.85;;
66856;SDS011;53766;50.280;19.160;2024-01-15T06:03:37;7.28;;;3.40;;
66856;SDS011;53766;50.280;19.160;2024-01-15T06:06:04;8.70;;;3.38;;
66856;SDS011;53766;50.280;19.160;2024-01-15T06:08:32;9.73;;;3.42;;
66856;SDS011;53766;50.280;19.160;2024-01-15T06:11:00;7.28;;;3.00;;
66856;SDS011;53766;50.280;19.160;2024-01-15T06:13:28;10.77;;;3.28;;
66856;SDS011;53766;50.280;19.160;2024-01-15T06:15:56;6.03;;;2.90;;
66856;SDS011;53766;50.280;19.160;2024-01-15T06:18:23;10.05;;;3.30;;
66856;SDS011;53766;50.280;19.160;2024-01-15T06:20:51;10.35;;;3.35;;
66856;SDS011;53766;50.280;19.160;2024-01-15T06:23:19;11.25;;;3.55;;
66856;SDS011;53766;50.280;19.160;2024-01-15T06:25:47;17.80;;;3.42;;
66856;SDS011;53766;50.280;19.160;2024-01-15T06:28:15;15.32;;;4.00;;
66856;SDS011;53766;50.280;19.160;2024-01-15T06:30:43;12.02;;;3.35;;
66856;SDS011;53766;50.280;19.160;2024-01-15T06:33:10;12.90;;;3.13;;
66856;SDS011;53766;50.280;19.160;2024-01-15T06:35:38;15.40;;;3.92;;
66856;SDS011;53766;50.280;19.160;2024-01-15T06:38:06;23.58;;;3.33;;
66856;SDS011;53766;50.280;19.160;2024-01-15T06:40:33;14.63;;;3.35;;
66856;SDS011;53766;50.280;19.160;2024-01-15T06:43:01;16.45;;;3.30;;
66856;SDS011;53766;50.280;19.160;2024-01-15T06:45:29;10.25;;;3.30;;
66856;SDS011;53766;50.280;19.160;2024-01-15T06:47:56;15.88;;;3.38;;
66856;SDS011;53766;50.280;19.160;2024-01-15T06:50:24;13.05;;;3.15;;
66856;SDS011;53766;50.280;19.160;2024-01-15T06:52:51;22.05;;;3.38;;
66856;SDS011;53766;50.280;19.160;2024-01-15T06:55:19;12.43;;;3.13;;
66856;SDS011;53766;50.280;19.160;2024-01-15T06:57:47;10.82;;;3.15;;
66856;SDS011;53766;50.280;19.160;2024-01-15T07:00:15;12.73;;;3.40;;
66856;SDS011;53766;50.280;19.160;2024-01-15T07:02:43;11.35;;;3.30;;
66856;SDS011;53766;50.280;19.160;2024-01-15T07:05:10;11.10;;;3.08;;
66856;SDS011;53766;50.280;19.160;2024-01-15T07:07:38;8.15;;;3.38;;
66856;SDS011;53766;50.280;19.160;2024-01-15T07:10:06;9.23;;;2.80;;
66856;SDS011;53766;50.280;19.160;2024-01-15T07:12:34;10.60;;;3.00;;
66856;SDS011;53766;50.280;19.160;2024-01-15T07:15:02;7.30;;;2.58;;
66856;SDS011;53766;50.280;19.160;2024-01-15T07:17:31;10.18;;;2.88;;
66856;SDS011;53766;50.280;19.160;2024-01-15T07:19:58;9.18;;;3.03;;
66856;SDS011;53766;50.280;19.160;2024-01-15T07:22:26;11.70;;;2.65;;
66856;SDS011;53766;50.280;19.160;2024-01-15T07:24:54;7.30;;;2.35;;
66856;SDS011;53766;50.280;19.160;2024-01-15T07:27:21;12.30;;;2.83;;
66856;SDS011;53766;50.280;19.160;2024-01-15T07:29:49;6.75;;;2.47;;
66856;SDS011;53766;50.280;19.160;2024-01-15T07:32:16;9.73;;;2.53;;
66856;SDS011;53766;50.280;19.160;2024-01-15T07:34:44;5.15;;;2.45;;
66856;SDS011;53766;50.280;19.160;2024-01-15T07:37:12;5.50;;;2.33;;
66856;SDS011;53766;50.280;19.160;2024-01-15T07:39:39;7.78;;;2.60;;
66856;SDS011;53766;50.280;19.160;2024-01-15T07:42:09;7.85;;;2.55;;
66856;SDS011;53766;50.280;19.160;2024-01-15T07:44:37;8.48;;;2.40;;
66856;SDS011;53766;50.280;19.160;2024-01-15T07:47:05;8.18;;;2.50;;
66856;SDS011;53766;50.280;19.160;2024-01-15T07:49:32;10.80;;;3.08;;
66856;SDS011;53766;50.280;19.160;2024-01-15T07:52:01;6.93;;;2.67;;
66856;SDS011;53766;50.280;19.160;2024-01-15T07:54:29;8.43;;;2.67;;
66856;SDS011;53766;50.280;19.160;2024-01-15T07:56:56;5.60;;;2.80;;
66856;SDS011;53766;50.280;19.160;2024-01-15T07:59:25;4.85;;;2.38;;
66856;SDS011;53766;50.280;19.160;2024-01-15T08:01:53;7.45;;;2.42;;
66856;SDS011;53766;50.280;19.160;2024-01-15T08:04:21;7.43;;;2.80;;
66856;SDS011;53766;50.280;19.160;2024-01-15T08:06:50;6.30;;;2.50;;
66856;SDS011;53766;50.280;19.160;2024-01-15T08:09:18;6.65;;;2.72;;
66856;SDS011;53766;50.280;19.160;2024-01-15T08:11:45;9.90;;;2.70;;
66856;SDS011;53766;50.280;19.160;2024-01-15T08:14:13;10.15;;;2.80;;
66856;SDS011;53766;50.280;19.160;2024-01-15T08:16:40;6.55;;;2.47;;
66856;SDS011;53766;50.280;19.160;2024-01-15T08:19:08;7.68;;;2.40;;
66856;SDS011;53766;50.280;19.160;2024-01-15T08:21:36;8.60;;;2.45;;
66856;SDS011;53766;50.280;19.160;2024-01-15T08:24:04;6.10;;;2.70;;
66856;SDS011;53766;50.280;19.160;2024-01-15T08:26:32;6.22;;;2.60;;
66856;SDS011;53766;50.280;19.160;2024-01-15T08:29:00;7.28;;;2.60;;
66856;SDS011;53766;50.280;19.160;2024-01-15T08:31:27;5.80;;;2.42;;
66856;SDS011;53766;50.280;19.160;2024-01-15T08:33:55;5.25;;;2.45;;
66856;SDS011;53766;50.280;19.160;2024-01-15T08:36:23;5.32;;;2.30;;
66856;SDS011;53766;50.280;19.160;2024-01-15T08:38:52;7.25;;;2.50;;
66856;SDS011;53766;50.280;19.160;2024-01-15T08:41:19;3.83;;;2.30;;
66856;SDS011;53766;50.280;19.160;2024-01-15T08:43:47;5.50;;;2.33;;
66856;SDS011;53766;50.280;19.160;2024-01-15T08:46:15;5.13;;;2.20;;
66856;SDS011;53766;50.280;19.160;2024-01-15T08:48:42;3.63;;;2.38;;
66856;SDS011;53766;50.280;19.160;2024-01-15T08:51:10;7.47;;;2.50;;
66856;SDS011;53766;50.280;19.160;2024-01-15T08:53:37;5.20;;;2.22;;
66856;SDS011;53766;50.280;19.160;2024-01-15T08:56:06;5.13;;;2.42;;
66856;SDS011;53766;50.280;19.160;2024-01-15T08:58:34;5.88;;;2.13;;
66856;SDS011;53766;50.280;19.160;2024-01-15T09:01:02;5.63;;;2.60;;
66856;SDS011;53766;50.280;19.160;2024-01-15T09:03:30;5.68;;;2.53;;
66856;SDS011;53766;50.280;19.160;2024-01-15T09:05:57;4.32;;;2.20;;
66856;SDS011;53766;50.280;19.160;2024-01-15T09:08:25;6.18;;;2.30;;
66856;SDS011;53766;50.280;19.160;2024-01-15T09:10:54;4.63;;;2.28;;
66856;SDS011;53766;50.280;19.160;2024-01-15T09:13:22;5.00;;;2.28;;
66856;SDS011;53766;50.280;19.160;2024-01-15T09:15:49;3.70;;;2.13;;
66856;SDS011;53766;50.280;19.160;2024-01-15T09:18:17;4.88;;;2.20;;
66856;SDS011;53766;50.280;19.160;2024-01-15T09:20:45;4.97;;;2.47;;
66856;SDS011;53766;50.280;19.160;2024-01-15T09:23:12;6.00;;;2.03;;
66856;SDS011;53766;50.280;19.160;2024-01-15T09:25:40;3.50;;;2.17;;
66856;SDS011;53766;50.280;19.160;2024-01-15T09:28:07;4.05;;;2.28;;
66856;SDS011;53766;50.280;19.160;2024-01-15T09:30:35;3.88;;;2.10;;
66856;SDS011;53766;50.280;19.160;2024-01-15T09:33:03;4.57;;;2.42;;
66856;SDS011;53766;50.280;19.160;2024-01-15T09:35:32;5.57;;;2.40;;
66856;SDS011;53766;50.280;19.160;2024-01-15T09:38:00;3.55;;;2.17;;
66856;SDS011;53766;50.280;19.160;2024-01-15T09:40:28;3.70;;;2.25;;
66856;SDS011;53766;50.280;19.160;2024-01-15T09:42:59;4.50;;;2.42;;
66856;SDS011;53766;50.280;19.160;2024-01-15T09:45:28;4.53;;;2.40;;
66856;SDS011;53766;50.280;19.160;2024-01-15T09:47:56;5.90;;;2.55;;
66856;SDS011;53766;50.280;19.160;2024-01-15T09:50:24;5.70;;;2.60;;
66856;SDS011;53766;50.280;19.160;2024-01-15T09:52:51;6.10;;;2.65;;
66856;SDS011;53766;50.280;19.160;2024-01-15T09:55:19;5.85;;;2.45;;
66856;SDS011;53766;50.280;19.160;2024-01-15T09:57:47;4.38;;;2.45;;
66856;SDS011;53766;50.280;19.160;2024-01-15T10:00:17;4.93;;;3.05;;
66856;SDS011;53766;50.280;19.160;2024-01-15T10:02:45;6.78;;;3.35;;
66856;SDS011;53766;50.280;19.160;2024-01-15T10:05:13;7.22;;;4.00;;
66856;SDS011;53766;50.280;19.160;2024-01-15T10:07:41;6.63;;;4.38;;
66856;SDS011;53766;50.280;19.160;2024-01-15T10:10:10;6.25;;;4.35;;
66856;SDS011;53766;50.280;19.160;2024-01-15T10:12:39;9.02;;;5.47;;
66856;SDS011;53766;50.280;19.160;2024-01-15T10:15:08;9.70;;;5.57;;
66856;SDS011;53766;50.280;19.160;2024-01-15T10:17:37;10.05;;;6.40;;
66856;SDS011;53766;50.280;19.160;2024-01-15T10:20:10;10.88;;;6.75;;
66856;SDS011;53766;50.280;19.160;2024-01-15T10:22:41;11.82;;;7.28;;
66856;SDS011;53766;50.280;19.160;2024-01-15T10:25:15;13.20;;;7.65;;
66856;SDS011;53766;50.280;19.160;2024-01-15T10:27:43;14.23;;;8.07;;
66856;SDS011;53766;50.280;19.160;2024-01-15T10:30:11;15.60;;;8.63;;
66856;SDS011;53766;50.280;19.160;2024-01-15T10:32:41;13.43;;;8.55;;
66856;SDS011;53766;50.280;19.160;2024-01-15T10:35:09;13.75;;;8.20;;
66856;SDS011;53766;50.280;19.160;2024-01-15T10:37:37;15.40;;;7.65;;
66856;SDS011;53766;50.280;19.160;2024-01-15T10:40:05;12.38;;;7.53;;
66856;SDS011;53766;50.280;19.160;2024-01-15T10:42:33;12.18;;;6.97;;
66856;SDS011;53766;50.280;19.160;2024-01-15T10:45:00;10.38;;;6.55;;
66856;SDS011;53766;50.280;19.160;2024-01-15T10:47:28;10.38;;;5.70;;
66856;SDS011;53766;50.280;19.160;2024-01-15T10:49:56;10.07;;;5.88;;
66856;SDS011;53766;50.280;19.160;2024-01-15T10:52:24;8.70;;;5.57;;
66856;SDS011;53766;50.280;19.160;2024-01-15T10:54:52;8.48;;;5.53;;
66856;SDS011;53766;50.280;19.160;2024-01-15T10:57:21;11.60;;;5.97;;
66856;SDS011;53766;50.280;19.160;2024-01-15T10:59:50;8.75;;;5.47;;
66856;SDS011;53766;50.280;19.160;2024-01-15T11:02:17;8.93;;;5.35;;
66856;SDS011;53766;50.280;19.160;2024-01-15T11:04:45;7.03;;;4.90;;
66856;SDS011;53766;50.280;19.160;2024-01-15T11:07:13;7.35;;;4.50;;
66856;SDS011;53766;50.280;19.160;2024-01-15T11:09:41;9.15;;;4.70;;
66856;SDS011;53766;50.280;19.160;2024-01-15T11:12:10;8.68;;;4.78;;
66856;SDS011;53766;50.280;19.160;2024-01-15T11:14:45;8.57;;;4.35;;
66856;SDS011;53766;50.280;19.160;2024-01-15T11:17:14;7.53;;;4.15;;
66856;SDS011;53766;50.280;19.160;2024-01-15T11:19:43;9.38;;;4.40;;
66856;SDS011;53766;50.280;19.160;2024-01-15T11:25:03;5.72;;;3.80;;
66856;SDS011;53766;50.280;19.160;2024-01-15T11:27:41;7.07;;;3.92;;
66856;SDS011;53766;50.280;19.160;2024-01-15T11:30:11;7.47;;;3.95;;
66856;SDS011;53766;50.280;19.160;2024-01-15T11:32:40;6.32;;;3.80;;
66856;SDS011;53766;50.280;19.160;2024-01-15T11:35:11;6.95;;;3.88;;
66856;SDS011;53766;50.280;19.160;2024-01-15T11:43:02;8.15;;;3.85;;
66856;SDS011;53766;50.280;19.160;2024-01-15T11:45:31;6.28;;;4.00;;
66856;SDS011;53766;50.280;19.160;2024-01-15T11:50:34;6.28;;;3.60;;
66856;SDS011;53766;50.280;19.160;2024-01-15T11:53:02;6.82;;;3.58;;
66856;SDS011;53766;50.280;19.160;2024-01-15T11:55:34;5.68;;;3.50;;
66856;SDS011;53766;50.280;19.160;2024-01-15T11:58:04;6.05;;;3.50;;
66856;SDS011;53766;50.280;19.160;2024-01-15T12:00:51;5.60;;;3.20;;
66856;SDS011;53766;50.280;19.160;2024-01-15T12:03:23;6.35;;;3.28;;
66856;SDS011;53766;50.280;19.160;2024-01-15T12:05:52;5.78;;;3.22;;
66856;SDS011;53766;50.280;19.160;2024-01-15T12:08:20;5.82;;;3.33;;
66856;SDS011;53766;50.280;19.160;2024-01-15T12:10:49;6.78;;;3.35;;
66856;SDS011;53766;50.280;19.160;2024-01-15T12:13:17;7.30;;;3.50;;
66856;SDS011;53766;50.280;19.160;2024-01-15T12:15:46;6.18;;;3.22;;
66856;SDS011;53766;50.280;19.160;2024-01-15T12:18:18;5.60;;;3.40;;
66856;SDS011;53766;50.280;19.160;2024-01-15T12:20:47;7.22;;;3.88;;
66856;SDS011;53766;50.280;19.160;2024-01-15T12:23:15;6.13;;;3.38;;
66856;SDS011;53766;50.280;19.160;2024-01-15T12:25:44;5.95;;;3.00;;
66856;SDS011;53766;50.280;19.160;2024-01-15T12:28:14;5.65;;;3.30;;
66856;SDS011;53766;50.280;19.160;2024-01-15T12:30:42;7.72;;;3.53;;
66856;SDS011;53766;50.280;19.160;2024-01-15T12:33:09;6.13;;;3.50;;
66856;SDS011;53766;50.280;19.160;2024-01-15T12:35:37;6.22;;;3.45;;
66856;SDS011;53766;50.280;19.160;2024-01-15T12:38:05;6.13;;;3.25;;
66856;SDS011;53766;50.280;19.160;2024-01-15T12:40:33;5.53;;;3.10;;
66856;SDS011;53766;50.280;19.160;2024-01-15T12:43:03;5.05;;;3.05;;
66856;SDS011;53766;50.280;19.160;2024-01-15T12:45:33;5.85;;;3.00;;
66856;SDS011;53766;50.280;19.160;2024-01-15T12:48:03;6.05;;;2.85;;
66856;SDS011;53766;50.280;19.160;2024-01-15T12:50:33;6.07;;;3.03;;
66856;SDS011;53766;50.280;19.160;2024-01-15T12:53:01;4.75;;;2.92;;
66856;SDS011;53766;50.280;19.160;2024-01-15T12:55:29;5.38;;;2.90;;
66856;SDS011;53766;50.280;19.160;2024-01-15T12:57:56;5.97;;;2.88;;
66856;SDS011;53766;50.280;19.160;2024-01-15T13:00:24;5.65;;;2.95;;
66856;SDS011;53766;50.280;19.160;2024-01-15T13:02:53;6.25;;;2.83;;
66856;SDS011;53766;50.280;19.160;2024-01-15T13:05:22;6.60;;;3.08;;
66856;SDS011;53766;50.280;19.160;2024-01-15T13:07:51;5.00;;;3.00;;
66856;SDS011;53766;50.280;19.160;2024-01-15T13:10:19;4.82;;;3.08;;
66856;SDS011;53766;50.280;19.160;2024-01-15T13:12:46;4.28;;;2.40;;
66856;SDS011;53766;50.280;19.160;2024-01-15T13:15:14;6.00;;;3.00;;
66856;SDS011;53766;50.280;19.160;2024-01-15T13:17:42;5.30;;;3.03;;
66856;SDS011;53766;50.280;19.160;2024-01-15T13:20:11;4.68;;;2.60;;
66856;SDS011;53766;50.280;19.160;2024-01-15T13:22:40;4.80;;;2.88;;
66856;SDS011;53766;50.280;19.160;2024-01-15T13:25:18;4.97;;;2.85;;
66856;SDS011;53766;50.280;19.160;2024-01-15T13:27:47;5.60;;;3.10;;
66856;SDS011;53766;50.280;19.160;2024-01-15T13:30:15;4.60;;;3.00;;
66856;SDS011;53766;50.280;19.160;2024-01-15T13:32:43;5.93;;;3.10;;
66856;SDS011;53766;50.280;19.160;2024-01-15T13:35:10;4.28;;;2.78;;
66856;SDS011;53766;50.280;19.160;2024-01-15T13:37:40;4.68;;;2.70;;
66856;SDS011;53766;50.280;19.160;2024-01-15T13:40:11;5.07;;;2.88;;
66856;SDS011;53766;50.280;19.160;2024-01-15T13:42:44;6.07;;;3.03;;
66856;SDS011;53766;50.280;19.160;2024-01-15T13:45:13;5.53;;;3.00;;
66856;SDS011;53766;50.280;19.160;2024-01-15T13:47:41;3.88;;;2.70;;
66856;SDS011;53766;50.280;19.160;2024-01-15T13:50:12;6.05;;;3.15;;
66856;SDS011;53766;50.280;19.160;2024-01-15T13:52:40;5.32;;;2.95;;
66856;SDS011;53766;50.280;19.160;2024-01-15T13:55:08;5.63;;;2.92;;
66856;SDS011;53766;50.280;19.160;2024-01-15T13:57:36;4.78;;;3.15;;
66856;SDS011;53766;50.280;19.160;2024-01-15T14:00:04;5.35;;;2.90;;
66856;SDS011;53766;50.280;19.160;2024-01-15T14:02:37;4.57;;;3.00;;
66856;SDS011;53766;50.280;19.160;2024-01-15T14:05:04;5.13;;;2.70;;
66856;SDS011;53766;50.280;19.160;2024-01-15T14:07:33;4.45;;;2.80;;
66856;SDS011;53766;50.280;19.160;2024-01-15T14:10:01;5.20;;;2.70;;
66856;SDS011;53766;50.280;19.160;2024-01-15T14:12:28;5.25;;;2.88;;
66856;SDS011;53766;50.280;19.160;2024-01-15T14:14:56;5.18;;;3.15;;
66856;SDS011;53766;50.280;19.160;2024-01-15T14:17:23;5.47;;;3.25;;
66856;SDS011;53766;50.280;19.160;2024-01-15T14:19:51;5.05;;;2.80;;
66856;SDS011;53766;50.280;19.160;2024-01-15T14:22:22;5.90;;;3.42;;
66856;SDS011;53766;50.280;19.160;2024-01-15T14:24:51;4.82;;;2.78;;
66856;SDS011;53766;50.280;19.160;2024-01-15T14:27:18;5.35;;;3.10;;
66856;SDS011;53766;50.280;19.160;2024-01-15T14:29:46;4.28;;;2.65;;
66856;SDS011;53766;50.280;19.160;2024-01-15T14:32:13;5.75;;;3.17;;
66856;SDS011;53766;50.280;19.160;2024-01-15T14:34:41;5.07;;;2.95;;
66856;SDS011;53766;50.280;19.160;2024-01-15T14:37:09;4.47;;;2.80;;
66856;SDS011;53766;50.280;19.160;2024-01-15T14:39:37;5.55;;;2.88;;
66856;SDS011;53766;50.280;19.160;2024-01-15T14:42:04;4.32;;;2.80;;
66856;SDS011;53766;50.280;19.160;2024-01-15T14:44:32;4.80;;;2.80;;
66856;SDS011;53766;50.280;19.160;2024-01-15T14:47:02;5.32;;;2.60;;
66856;SDS011;53766;50.280;19.160;2024-01-15T14:49:30;4.38;;;2.85;;